Terminal Aerodrome Forecast
Issued by NWS

Home | Current Version | Previous Version | Text Only | Print | Product List | Glossary On
Versions: 1 2 3 4 5 6 7 8 9 10 11 12 13 14 15 16 17 18 19 20
000
FTUS45 KREV 310500
TAFTRK
TAF
KTRK 310527Z 3106/0106 VRB03KT P6SM SKC
     FM312000 26009KT P6SM SKC
     FM010300 VRB03KT P6SM SKC
      AMD NOT SKED 3106/3112=

USA.gov is the U.S. government's official web portal to all federal, state and local government web resources and services.